Time;durP1;ratioP1;P1;durP2;ratioP2;P2;SDS_P1;SDS_P2;PMS_P1;PMS_P2;Temp;Humidity;BMP_temperature;BMP_pressure;BME280_temperature;BME280_humidity;BME280_pressure;Samples;Min_cycle;Max_cycle;Signal;HPM_P1;HPM_P2
2022/01/15 00:01:24;;;;;;;107.57;68.23;;;;;;;;;;5104770;28;20407;-84
2022/01/15 00:03:51;;;;;;;102.38;67.20;;;;;;;;;;5102774;28;20391;-86
2022/01/15 00:06:18;;;;;;;107.75;67.20;;;;;;;;;;5101172;28;20398;-86
2022/01/15 00:08:45;;;;;;;99.10;66.75;;;;;;;;;;5104413;28;20834;-85
2022/01/15 00:11:11;;;;;;;108.67;68.93;;;;;;;;;;5107828;28;20391;-86
2022/01/15 00:13:41;;;;;;;106.78;67.03;;;;;;;;;;5108502;28;20402;-85
2022/01/15 00:16:12;;;;;;;97.03;64.47;;;;;;;;;;5108131;27;20402;-86
2022/01/15 00:18:45;;;;;;;99.83;66.33;;;;;;;;;;5108369;28;20438;-85
2022/01/15 00:21:12;;;;;;;102.13;66.80;;;;;;;;;;5107427;28;20493;-85
2022/01/15 00:23:40;;;;;;;99.25;64.97;;;;;;;;;;5108574;28;20402;-85
2022/01/15 00:26:07;;;;;;;108.15;69.15;;;;;;;;;;5106951;27;20410;-85
2022/01/15 00:28:34;;;;;;;99.45;66.57;;;;;;;;;;5109008;28;20402;-86
2022/01/15 00:31:01;;;;;;;108.65;68.90;;;;;;;;;;5105394;28;20395;-85
2022/01/15 00:33:30;;;;;;;107.23;69.77;;;;;;;;;;5109301;28;20390;-86
2022/01/15 00:35:57;;;;;;;105.32;70.13;;;;;;;;;;5108575;28;20426;-86
2022/01/15 00:38:24;;;;;;;103.00;67.78;;;;;;;;;;5108756;28;20495;-86
2022/01/15 00:40:51;;;;;;;104.18;67.97;;;;;;;;;;5105932;28;20407;-85
2022/01/15 00:43:18;;;;;;;102.57;67.70;;;;;;;;;;5108945;28;20467;-86
2022/01/15 00:45:45;;;;;;;100.50;65.72;;;;;;;;;;5109286;28;21346;-86
2022/01/15 00:48:12;;;;;;;102.35;65.15;;;;;;;;;;5108835;28;20399;-85
2022/01/15 00:50:40;;;;;;;97.30;65.45;;;;;;;;;;5109649;28;20395;-85
2022/01/15 00:53:07;;;;;;;99.88;66.32;;;;;;;;;;5109072;28;20455;-84
2022/01/15 00:55:34;;;;;;;96.63;63.60;;;;;;;;;;5112611;28;20463;-86
2022/01/15 00:58:01;;;;;;;93.93;62.08;;;;;;;;;;5113725;28;20418;-85
2022/01/15 01:00:28;;;;;;;98.07;62.85;;;;;;;;;;5134785;27;20401;-84
2022/01/15 01:02:55;;;;;;;95.00;60.75;;;;;;;;;;5119480;27;20893;-85
2022/01/15 01:05:22;;;;;;;95.30;60.10;;;;;;;;;;5107662;28;20403;-84
2022/01/15 01:07:51;;;;;;;94.63;61.10;;;;;;;;;;5107772;28;20864;-85
2022/01/15 01:10:47;;;;;;;93.72;60.17;;;;;;;;;;5101846;28;20454;-86
2022/01/15 01:13:40;;;;;;;92.28;59.72;;;;;;;;;;5107730;28;20773;-85
2022/01/15 01:22:23;;;;;;;89.95;58.58;;;;;;;;;;5105875;28;20387;-85
2022/01/15 01:24:37;;;;;;;93.80;59.58;;;;;;;;;;5106186;28;20415;-85
2022/01/15 01:27:09;;;;;;;92.30;60.55;;;;;;;;;;5106650;28;20410;-85
2022/01/15 01:29:48;;;;;;;95.70;60.80;;;;;;;;;;5107718;28;20406;-85
2022/01/15 01:32:31;;;;;;;95.95;60.58;;;;;;;;;;5106339;28;20487;-86
2022/01/15 01:35:05;;;;;;;88.95;58.13;;;;;;;;;;5107103;28;20796;-85
2022/01/15 01:37:37;;;;;;;92.28;57.67;;;;;;;;;;5107375;28;20430;-85
2022/01/15 01:40:17;;;;;;;87.60;56.97;;;;;;;;;;5105009;28;20398;-85
2022/01/15 01:42:54;;;;;;;89.35;56.30;;;;;;;;;;5107249;28;20402;-85
2022/01/15 01:45:21;;;;;;;89.13;55.90;;;;;;;;;;5103998;28;20398;-85
2022/01/15 01:47:48;;;;;;;89.57;55.13;;;;;;;;;;5107384;28;20401;-84
2022/01/15 01:50:19;;;;;;;89.07;56.95;;;;;;;;;;5106171;28;20402;-85
2022/01/15 01:52:47;;;;;;;84.93;56.00;;;;;;;;;;5106838;28;20444;-86
2022/01/15 01:55:17;;;;;;;88.28;54.88;;;;;;;;;;5103847;28;20865;-86
2022/01/15 01:57:44;;;;;;;83.43;54.38;;;;;;;;;;5105900;28;21078;-85
2022/01/15 02:00:14;;;;;;;84.53;55.10;;;;;;;;;;5106728;28;20454;-86
2022/01/15 02:02:41;;;;;;;85.67;53.67;;;;;;;;;;5106447;28;20485;-85
2022/01/15 02:05:10;;;;;;;80.45;52.17;;;;;;;;;;5106259;28;20394;-85
2022/01/15 02:07:37;;;;;;;83.25;53.40;;;;;;;;;;5106361;28;20796;-85
2022/01/15 02:10:07;;;;;;;79.55;51.33;;;;;;;;;;5103589;28;20481;-86
2022/01/15 02:12:36;;;;;;;79.15;52.53;;;;;;;;;;5106317;28;20410;-85
2022/01/15 02:15:07;;;;;;;77.63;51.75;;;;;;;;;;5106363;28;20448;-85
2022/01/15 02:17:34;;;;;;;81.43;52.90;;;;;;;;;;5106952;28;20553;-85
2022/01/15 02:20:34;;;;;;;78.63;52.00;;;;;;;;;;5105936;28;20421;-85
2022/01/15 02:25:49;;;;;;;79.03;52.22;;;;;;;;;;5104400;28;20402;-85
2022/01/15 02:28:20;;;;;;;86.20;52.78;;;;;;;;;;5106350;28;20451;-85
2022/01/15 02:30:51;;;;;;;77.55;51.20;;;;;;;;;;5106086;28;20394;-83
2022/01/15 02:33:18;;;;;;;77.22;50.47;;;;;;;;;;5105896;28;20399;-86
2022/01/15 02:35:46;;;;;;;77.20;49.97;;;;;;;;;;5106659;28;20403;-86
2022/01/15 02:38:13;;;;;;;80.65;51.00;;;;;;;;;;5103072;28;20415;-85
2022/01/15 02:40:40;;;;;;;77.50;50.95;;;;;;;;;;5103535;28;20414;-86
2022/01/15 02:43:10;;;;;;;73.25;50.10;;;;;;;;;;5105946;28;20752;-85
2022/01/15 02:45:41;;;;;;;75.97;49.88;;;;;;;;;;5106517;28;20391;-86
2022/01/15 02:48:11;;;;;;;73.72;48.88;;;;;;;;;;5105806;28;20430;-86
2022/01/15 02:50:38;;;;;;;76.13;48.20;;;;;;;;;;5106605;28;20398;-85
2022/01/15 02:53:07;;;;;;;77.00;50.08;;;;;;;;;;5105468;28;20478;-86
2022/01/15 02:55:33;;;;;;;72.50;46.53;;;;;;;;;;5105061;28;20415;-85
2022/01/15 02:58:00;;;;;;;75.95;50.67;;;;;;;;;;5105503;28;20455;-85
2022/01/15 03:00:28;;;;;;;76.32;49.67;;;;;;;;;;5106060;28;20808;-85
2022/01/15 03:02:55;;;;;;;80.15;50.50;;;;;;;;;;5105681;28;20399;-85
2022/01/15 03:05:22;;;;;;;81.45;52.15;;;;;;;;;;5104245;28;20875;-85
2022/01/15 03:07:49;;;;;;;77.80;49.05;;;;;;;;;;5099675;28;20394;-84
2022/01/15 03:10:18;;;;;;;76.10;50.90;;;;;;;;;;5102280;28;20403;-86
2022/01/15 03:12:45;;;;;;;73.25;47.58;;;;;;;;;;5104365;28;20391;-85
2022/01/15 03:15:18;;;;;;;70.15;46.30;;;;;;;;;;5105985;28;20410;-86
2022/01/15 03:17:45;;;;;;;69.83;46.60;;;;;;;;;;5106761;28;20405;-85
2022/01/15 03:20:14;;;;;;;69.28;44.67;;;;;;;;;;5106650;28;20418;-85
2022/01/15 03:22:41;;;;;;;72.45;46.58;;;;;;;;;;5103054;28;20494;-85
2022/01/15 03:25:09;;;;;;;69.50;44.72;;;;;;;;;;5104039;28;20459;-85
2022/01/15 03:27:38;;;;;;;64.80;45.15;;;;;;;;;;5105288;28;20403;-85
2022/01/15 03:30:06;;;;;;;67.77;44.93;;;;;;;;;;5104478;28;20402;-85
2022/01/15 03:32:33;;;;;;;67.93;44.77;;;;;;;;;;5106775;28;20459;-84
2022/01/15 03:35:00;;;;;;;67.05;44.58;;;;;;;;;;5107352;28;20463;-85
2022/01/15 03:37:27;;;;;;;69.68;44.35;;;;;;;;;;5107594;28;20410;-85
2022/01/15 03:39:54;;;;;;;65.85;44.60;;;;;;;;;;5103235;28;20425;-86
2022/01/15 03:42:20;;;;;;;66.10;44.78;;;;;;;;;;5108038;28;20444;-86
2022/01/15 03:44:50;;;;;;;68.15;44.80;;;;;;;;;;5109866;28;20394;-85
2022/01/15 03:47:18;;;;;;;67.67;44.97;;;;;;;;;;5116416;28;20520;-86
2022/01/15 03:49:45;;;;;;;69.15;45.67;;;;;;;;;;5118635;28;20427;-86
2022/01/15 03:52:12;;;;;;;66.20;43.90;;;;;;;;;;5136545;27;20383;-85
2022/01/15 03:54:39;;;;;;;68.63;43.87;;;;;;;;;;5133946;28;20432;-86
2022/01/15 03:57:06;;;;;;;65.68;43.88;;;;;;;;;;5115712;28;20787;-86
2022/01/15 03:59:34;;;;;;;67.55;44.05;;;;;;;;;;5110679;27;21094;-86
2022/01/15 04:02:02;;;;;;;62.38;42.53;;;;;;;;;;5109831;28;20391;-85
2022/01/15 04:04:29;;;;;;;63.70;43.17;;;;;;;;;;5109930;28;20935;-86
2022/01/15 04:06:56;;;;;;;59.53;38.10;;;;;;;;;;5109137;28;20407;-85
2022/01/15 04:09:23;;;;;;;58.05;36.28;;;;;;;;;;5105844;28;20459;-85
2022/01/15 04:11:50;;;;;;;55.28;36.28;;;;;;;;;;5102946;28;20402;-86
2022/01/15 04:14:17;;;;;;;57.78;36.65;;;;;;;;;;5109520;28;20406;-85
2022/01/15 04:16:44;;;;;;;58.37;36.87;;;;;;;;;;5109458;28;20416;-86
2022/01/15 04:19:12;;;;;;;55.97;37.72;;;;;;;;;;5109172;28;20406;-85
2022/01/15 04:21:39;;;;;;;58.40;37.63;;;;;;;;;;5109478;28;20455;-85
2022/01/15 04:24:06;;;;;;;59.88;40.20;;;;;;;;;;5108931;28;20943;-86
2022/01/15 04:26:33;;;;;;;68.28;49.67;;;;;;;;;;5107566;27;20411;-86
2022/01/15 04:29:03;;;;;;;59.00;40.25;;;;;;;;;;5109217;28;20402;-85
2022/01/15 04:31:36;;;;;;;61.90;41.70;;;;;;;;;;5109346;28;20402;-86
2022/01/15 04:34:03;;;;;;;61.65;41.28;;;;;;;;;;5108985;28;20762;-86
2022/01/15 04:36:31;;;;;;;59.35;40.17;;;;;;;;;;5109185;28;20409;-86
2022/01/15 04:38:58;;;;;;;62.30;39.70;;;;;;;;;;5107993;28;20418;-86
2022/01/15 04:41:25;;;;;;;59.53;40.65;;;;;;;;;;5101991;28;20406;-85
2022/01/15 04:43:52;;;;;;;61.53;40.55;;;;;;;;;;5109005;28;20395;-85
2022/01/15 04:46:19;;;;;;;58.20;39.22;;;;;;;;;;5108825;28;20878;-86
2022/01/15 04:48:45;;;;;;;56.20;38.87;;;;;;;;;;5109090;28;20832;-85
2022/01/15 04:51:12;;;;;;;57.58;38.13;;;;;;;;;;5109050;28;20399;-86
2022/01/15 04:53:40;;;;;;;54.47;38.25;;;;;;;;;;5108984;28;20502;-85
2022/01/15 04:56:07;;;;;;;57.13;37.47;;;;;;;;;;5106612;28;20961;-85
2022/01/15 04:58:34;;;;;;;53.33;36.97;;;;;;;;;;5108780;28;20398;-85
2022/01/15 05:01:01;;;;;;;56.28;37.50;;;;;;;;;;5108422;28;20459;-86
2022/01/15 05:03:28;;;;;;;57.97;37.22;;;;;;;;;;5105796;28;20414;-85
2022/01/15 05:05:54;;;;;;;53.97;37.03;;;;;;;;;;5103860;28;20464;-84
2022/01/15 05:08:21;;;;;;;52.75;36.25;;;;;;;;;;5104078;28;20410;-85
2022/01/15 05:10:49;;;;;;;56.57;35.60;;;;;;;;;;5105974;28;20398;-85
2022/01/15 05:13:21;;;;;;;54.70;36.17;;;;;;;;;;5107360;28;20784;-85
2022/01/15 05:15:48;;;;;;;54.17;35.97;;;;;;;;;;5107750;28;20448;-85
2022/01/15 05:18:14;;;;;;;54.42;34.85;;;;;;;;;;5107376;28;20418;-84
2022/01/15 05:20:44;;;;;;;55.72;35.15;;;;;;;;;;5107794;28;20426;-86
2022/01/15 05:23:11;;;;;;;55.67;35.55;;;;;;;;;;5107071;28;20473;-85
2022/01/15 05:25:38;;;;;;;56.28;34.08;;;;;;;;;;5106294;28;20475;-86
2022/01/15 05:28:07;;;;;;;49.55;34.15;;;;;;;;;;5107199;28;20464;-86
2022/01/15 05:30:35;;;;;;;54.10;34.40;;;;;;;;;;5107514;28;20403;-86
2022/01/15 05:33:01;;;;;;;54.35;34.65;;;;;;;;;;5106894;28;20387;-85
2022/01/15 05:35:28;;;;;;;51.13;34.40;;;;;;;;;;5106924;28;20402;-86
2022/01/15 05:37:56;;;;;;;51.92;33.55;;;;;;;;;;5106671;28;20406;-85
2022/01/15 05:40:23;;;;;;;49.80;33.45;;;;;;;;;;5101978;28;20419;-86
2022/01/15 05:42:51;;;;;;;48.17;33.17;;;;;;;;;;5106741;28;20444;-85
2022/01/15 05:45:21;;;;;;;50.07;32.70;;;;;;;;;;5106886;27;20471;-85
2022/01/15 05:47:48;;;;;;;48.00;32.35;;;;;;;;;;5107266;28;20402;-85
2022/01/15 05:50:15;;;;;;;51.80;33.65;;;;;;;;;;5106427;28;20942;-85
2022/01/15 05:52:42;;;;;;;49.78;33.90;;;;;;;;;;5107027;28;20455;-85
2022/01/15 05:55:09;;;;;;;50.13;31.52;;;;;;;;;;5105461;28;20945;-85
2022/01/15 05:57:36;;;;;;;50.90;31.35;;;;;;;;;;5106759;28;20452;-86
2022/01/15 06:00:04;;;;;;;48.38;31.50;;;;;;;;;;5106373;28;20426;-85
2022/01/15 06:02:33;;;;;;;46.60;31.83;;;;;;;;;;5106656;28;21006;-85
2022/01/15 06:05:00;;;;;;;45.30;30.42;;;;;;;;;;5103280;28;20404;-86
2022/01/15 06:07:26;;;;;;;46.10;30.58;;;;;;;;;;5105822;28;20422;-84
2022/01/15 06:09:56;;;;;;;47.38;31.23;;;;;;;;;;5102749;28;20747;-85
2022/01/15 06:12:29;;;;;;;45.73;30.03;;;;;;;;;;5099480;28;20477;-86
2022/01/15 06:14:56;;;;;;;45.55;30.13;;;;;;;;;;5101860;27;20484;-86
2022/01/15 06:17:22;;;;;;;46.28;31.13;;;;;;;;;;5104013;27;20395;-85
2022/01/15 06:19:51;;;;;;;47.38;31.92;;;;;;;;;;5098863;28;20474;-85
2022/01/15 06:22:18;;;;;;;46.45;30.33;;;;;;;;;;5102392;28;20918;-85
2022/01/15 06:24:45;;;;;;;44.67;30.25;;;;;;;;;;5098146;28;20896;-86
2022/01/15 06:27:16;;;;;;;46.63;30.15;;;;;;;;;;5097075;27;20925;-86
2022/01/15 06:29:43;;;;;;;46.90;30.65;;;;;;;;;;5098634;28;20412;-86
2022/01/15 06:32:10;;;;;;;52.03;30.42;;;;;;;;;;5101527;28;20459;-86
2022/01/15 06:34:39;;;;;;;46.87;29.37;;;;;;;;;;5098700;28;20504;-87
2022/01/15 06:37:08;;;;;;;52.88;30.15;;;;;;;;;;5101694;27;20886;-85
2022/01/15 06:39:35;;;;;;;48.13;30.83;;;;;;;;;;5093848;28;20404;-85
2022/01/15 06:42:02;;;;;;;50.30;32.05;;;;;;;;;;5114660;27;20392;-84
2022/01/15 06:44:29;;;;;;;47.05;30.23;;;;;;;;;;5113871;27;20402;-85
2022/01/15 06:46:56;;;;;;;42.85;29.55;;;;;;;;;;5098959;28;20451;-84
2022/01/15 06:49:23;;;;;;;46.20;29.65;;;;;;;;;;5103814;28;20403;-84
2022/01/15 06:51:50;;;;;;;43.95;29.48;;;;;;;;;;5101492;28;20406;-86
2022/01/15 06:54:18;;;;;;;40.42;28.80;;;;;;;;;;5105763;28;21182;-85
2022/01/15 06:56:45;;;;;;;43.63;28.27;;;;;;;;;;5104236;28;20464;-86
2022/01/15 06:59:12;;;;;;;40.67;27.80;;;;;;;;;;5105506;28;20410;-86
2022/01/15 07:01:38;;;;;;;41.03;26.77;;;;;;;;;;5105580;28;20514;-85
2022/01/15 07:04:05;;;;;;;38.53;25.33;;;;;;;;;;5105581;28;20459;-85
2022/01/15 07:06:32;;;;;;;38.05;25.40;;;;;;;;;;5105374;28;20394;-85
2022/01/15 07:08:59;;;;;;;31.70;21.00;;;;;;;;;;5104191;28;20403;-85
2022/01/15 07:11:27;;;;;;;35.22;23.45;;;;;;;;;;5100274;28;20414;-86
2022/01/15 07:13:54;;;;;;;41.20;26.08;;;;;;;;;;5105224;28;20398;-86
2022/01/15 07:16:21;;;;;;;38.38;24.38;;;;;;;;;;5105711;28;20391;-85
2022/01/15 07:18:47;;;;;;;38.08;24.58;;;;;;;;;;5105597;28;20398;-84
2022/01/15 07:21:14;;;;;;;34.38;22.55;;;;;;;;;;5110078;28;20890;-85
2022/01/15 07:23:41;;;;;;;31.65;21.17;;;;;;;;;;5109166;28;20406;-84
2022/01/15 07:26:08;;;;;;;29.08;19.70;;;;;;;;;;5106535;28;20418;-85
2022/01/15 07:28:36;;;;;;;32.30;21.40;;;;;;;;;;5108975;28;20548;-85
2022/01/15 07:31:03;;;;;;;30.13;21.20;;;;;;;;;;5108761;28;20426;-84
2022/01/15 07:33:30;;;;;;;29.13;19.88;;;;;;;;;;5108908;28;20750;-84
2022/01/15 07:35:57;;;;;;;31.38;21.38;;;;;;;;;;5108756;28;20394;-85
2022/01/15 07:38:24;;;;;;;39.05;25.98;;;;;;;;;;5108526;28;20951;-84
2022/01/15 07:40:53;;;;;;;39.85;26.38;;;;;;;;;;5105034;28;20425;-85
2022/01/15 07:43:20;;;;;;;48.88;31.25;;;;;;;;;;5108479;28;20804;-84
2022/01/15 07:45:48;;;;;;;44.05;27.98;;;;;;;;;;5108661;28;20822;-84
2022/01/15 07:48:15;;;;;;;43.28;27.42;;;;;;;;;;5108367;28;20842;-85
2022/01/15 07:50:42;;;;;;;46.60;29.02;;;;;;;;;;5108676;28;20398;-84
2022/01/15 07:53:09;;;;;;;37.72;26.15;;;;;;;;;;5108297;28;20845;-84
2022/01/15 07:55:36;;;;;;;64.18;55.20;;;;;;;;;;5106835;28;20863;-85
2022/01/15 07:58:03;;;;;;;40.33;30.13;;;;;;;;;;5108030;28;20440;-84
2022/01/15 08:00:31;;;;;;;49.90;36.03;;;;;;;;;;5108584;28;20423;-84
2022/01/15 08:02:59;;;;;;;45.15;31.73;;;;;;;;;;5107959;28;20820;-84
2022/01/15 08:05:26;;;;;;;47.78;31.00;;;;;;;;;;5104378;28;20402;-84
2022/01/15 08:07:52;;;;;;;46.17;28.45;;;;;;;;;;5108008;28;20813;-84
2022/01/15 08:10:19;;;;;;;54.90;33.58;;;;;;;;;;5106513;28;20815;-84
2022/01/15 08:12:50;;;;;;;80.35;43.05;;;;;;;;;;5106963;28;20448;-84
2022/01/15 08:15:20;;;;;;;44.97;26.75;;;;;;;;;;5107964;28;20443;-85
2022/01/15 08:17:47;;;;;;;65.03;35.88;;;;;;;;;;5108080;28;20440;-84
2022/01/15 08:20:16;;;;;;;31.15;19.63;;;;;;;;;;5107629;28;20406;-84
2022/01/15 08:22:44;;;;;;;39.42;25.25;;;;;;;;;;5108109;28;20467;-85
2022/01/15 08:25:12;;;;;;;43.17;26.15;;;;;;;;;;5104672;28;20416;-85
2022/01/15 08:27:39;;;;;;;30.15;19.85;;;;;;;;;;5107835;28;20407;-85
2022/01/15 08:30:08;;;;;;;30.67;21.02;;;;;;;;;;5107294;28;20398;-84
2022/01/15 08:32:34;;;;;;;30.73;19.75;;;;;;;;;;5107602;28;20403;-84
2022/01/15 08:35:01;;;;;;;30.63;19.48;;;;;;;;;;5107211;28;20686;-84
2022/01/15 08:37:29;;;;;;;46.33;25.80;;;;;;;;;;5107835;28;20455;-84
2022/01/15 08:39:56;;;;;;;40.38;24.15;;;;;;;;;;5103375;28;20403;-84
2022/01/15 08:42:23;;;;;;;61.33;30.95;;;;;;;;;;5106411;28;20785;-84
2022/01/15 08:44:52;;;;;;;48.60;26.02;;;;;;;;;;5107085;28;20398;-84
2022/01/15 08:47:19;;;;;;;41.95;25.92;;;;;;;;;;5107298;28;20402;-84
2022/01/15 08:49:45;;;;;;;39.90;25.02;;;;;;;;;;5107514;28;20531;-84
2022/01/15 08:52:12;;;;;;;38.20;24.70;;;;;;;;;;5107114;28;20425;-85
2022/01/15 08:54:40;;;;;;;40.10;24.55;;;;;;;;;;5106901;28;20406;-85
2022/01/15 08:57:07;;;;;;;37.03;23.93;;;;;;;;;;5104464;28;20406;-84
2022/01/15 08:59:34;;;;;;;80.03;39.65;;;;;;;;;;5107312;28;20870;-85
2022/01/15 09:02:01;;;;;;;41.13;25.35;;;;;;;;;;5106699;28;20495;-84
2022/01/15 09:04:28;;;;;;;35.20;22.83;;;;;;;;;;5107477;28;20402;-85
2022/01/15 09:06:55;;;;;;;42.13;23.52;;;;;;;;;;5107017;27;20586;-85
2022/01/15 09:09:22;;;;;;;34.53;22.92;;;;;;;;;;5106778;28;20402;-84
2022/01/15 09:11:51;;;;;;;41.70;25.73;;;;;;;;;;5105115;28;20455;-84
2022/01/15 09:14:18;;;;;;;31.02;21.00;;;;;;;;;;5106424;28;20399;-84
2022/01/15 09:16:45;;;;;;;25.98;18.70;;;;;;;;;;5107325;28;20463;-84
2022/01/15 09:19:12;;;;;;;30.20;20.65;;;;;;;;;;5106603;28;20696;-84
2022/01/15 09:21:39;;;;;;;28.13;19.80;;;;;;;;;;5106510;28;20781;-85
2022/01/15 09:24:06;;;;;;;26.33;19.40;;;;;;;;;;5106172;28;20519;-84
2022/01/15 09:27:00;;;;;;;31.98;20.05;;;;;;;;;;5103336;28;20803;-85
2022/01/15 09:32:14;;;;;;;28.00;20.23;;;;;;;;;;5107330;28;20404;-85
2022/01/15 09:34:42;;;;;;;29.50;21.25;;;;;;;;;;5111517;28;20379;-84
2022/01/15 09:37:09;;;;;;;36.33;23.83;;;;;;;;;;5126290;28;20448;-84
2022/01/15 09:39:36;;;;;;;32.78;23.05;;;;;;;;;;5126650;28;20386;-85
2022/01/15 09:42:04;;;;;;;31.38;22.27;;;;;;;;;;5122654;28;20414;-84
2022/01/15 09:44:33;;;;;;;34.63;24.33;;;;;;;;;;5124122;28;20455;-84
2022/01/15 09:47:01;;;;;;;35.50;24.20;;;;;;;;;;5119317;28;20458;-85
2022/01/15 09:49:29;;;;;;;36.10;24.70;;;;;;;;;;5123200;28;20386;-84
2022/01/15 09:51:56;;;;;;;34.83;23.63;;;;;;;;;;5128000;28;20402;-84
2022/01/15 09:54:23;;;;;;;31.35;22.45;;;;;;;;;;5110740;28;20444;-84
2022/01/15 09:56:50;;;;;;;33.93;23.27;;;;;;;;;;5104986;28;20429;-84
2022/01/15 09:59:17;;;;;;;28.25;20.58;;;;;;;;;;5105635;28;20512;-84
2022/01/15 10:01:47;;;;;;;32.40;21.42;;;;;;;;;;5105884;28;20419;-85
2022/01/15 10:04:14;;;;;;;30.10;22.02;;;;;;;;;;5105079;28;20424;-85
2022/01/15 10:07:11;;;;;;;30.67;21.85;;;;;;;;;;5106046;28;20434;-84
2022/01/15 10:09:39;;;;;;;31.17;21.40;;;;;;;;;;5105983;28;20414;-84
2022/01/15 10:12:07;;;;;;;31.75;20.52;;;;;;;;;;5102935;28;20398;-84
2022/01/15 10:14:35;;;;;;;26.40;18.23;;;;;;;;;;5105680;28;20534;-84
2022/01/15 10:17:19;;;;;;;28.85;16.67;;;;;;;;;;5105167;28;20676;-84
2022/01/15 10:19:46;;;;;;;23.20;15.85;;;;;;;;;;5105892;28;20398;-84
2022/01/15 10:22:16;;;;;;;22.70;15.95;;;;;;;;;;5105516;28;20414;-85
2022/01/15 10:24:51;;;;;;;22.98;15.63;;;;;;;;;;5102836;28;20491;-85
2022/01/15 10:27:28;;;;;;;22.42;15.15;;;;;;;;;;5105007;28;20391;-84
2022/01/15 10:29:59;;;;;;;20.73;14.50;;;;;;;;;;5105244;28;20463;-85
2022/01/15 10:32:29;;;;;;;16.20;10.57;;;;;;;;;;5104872;28;20436;-84
2022/01/15 10:34:57;;;;;;;14.90;9.65;;;;;;;;;;5104963;28;20947;-84
2022/01/15 10:37:25;;;;;;;13.07;8.82;;;;;;;;;;5105204;28;20805;-84
2022/01/15 10:39:58;;;;;;;12.07;8.80;;;;;;;;;;5104859;28;20768;-85
2022/01/15 10:42:25;;;;;;;10.63;8.13;;;;;;;;;;5102274;28;20423;-85
2022/01/15 10:44:53;;;;;;;12.82;8.95;;;;;;;;;;5105022;28;20394;-85
2022/01/15 10:47:22;;;;;;;11.10;8.65;;;;;;;;;;5105307;28;20399;-84
2022/01/15 10:49:50;;;;;;;12.95;9.23;;;;;;;;;;5105049;28;20410;-85
2022/01/15 10:52:19;;;;;;;11.60;8.73;;;;;;;;;;5104554;28;20399;-85
2022/01/15 10:54:57;;;;;;;11.25;9.02;;;;;;;;;;5104354;28;20395;-85
2022/01/15 10:57:26;;;;;;;13.93;9.75;;;;;;;;;;5104694;28;20406;-85
2022/01/15 11:00:09;;;;;;;12.48;9.40;;;;;;;;;;5105903;28;20402;-84
2022/01/15 11:02:36;;;;;;;15.18;10.15;;;;;;;;;;5102729;28;20451;-84
2022/01/15 11:05:23;;;;;;;12.75;9.75;;;;;;;;;;5104109;28;20421;-85
2022/01/15 11:07:50;;;;;;;13.52;10.02;;;;;;;;;;5105206;28;20410;-85
2022/01/15 11:10:18;;;;;;;12.60;9.90;;;;;;;;;;5103130;28;20650;-85
2022/01/15 11:12:44;;;;;;;13.80;9.82;;;;;;;;;;5103299;28;20477;-85
2022/01/15 11:15:11;;;;;;;13.53;10.00;;;;;;;;;;5104606;28;20452;-84
2022/01/15 11:17:40;;;;;;;14.82;10.45;;;;;;;;;;5104667;28;20455;-85
2022/01/15 11:20:16;;;;;;;15.73;10.83;;;;;;;;;;5104381;28;20862;-85
2022/01/15 11:22:44;;;;;;;14.13;10.90;;;;;;;;;;5105072;28;20820;-85
2022/01/15 11:25:13;;;;;;;14.85;10.77;;;;;;;;;;5103055;28;20407;-84
2022/01/15 11:27:41;;;;;;;14.88;11.30;;;;;;;;;;5102648;28;20477;-85
2022/01/15 11:30:09;;;;;;;14.73;11.43;;;;;;;;;;5104637;28;20398;-84
2022/01/15 11:32:36;;;;;;;14.60;11.43;;;;;;;;;;5104661;28;20954;-84
2022/01/15 11:35:06;;;;;;;15.52;11.90;;;;;;;;;;5103846;28;20455;-84
2022/01/15 11:37:46;;;;;;;14.52;11.32;;;;;;;;;;5104564;28;20399;-84
2022/01/15 11:40:35;;;;;;;16.30;12.10;;;;;;;;;;5103384;28;20453;-84
2022/01/15 11:43:40;;;;;;;17.33;12.73;;;;;;;;;;5100884;28;20422;-85
2022/01/15 11:46:27;;;;;;;18.30;12.82;;;;;;;;;;5101986;28;20478;-84
2022/01/15 11:49:41;;;;;;;17.08;12.75;;;;;;;;;;5104210;28;20948;-85
2022/01/15 11:52:35;;;;;;;17.92;12.98;;;;;;;;;;5067646;28;20414;-84
2022/01/15 11:55:18;;;;;;;17.50;13.95;;;;;;;;;;5103888;28;20430;-85
2022/01/15 11:57:48;;;;;;;16.70;13.35;;;;;;;;;;5104012;28;20405;-77
2022/01/15 12:00:35;;;;;;;18.67;13.93;;;;;;;;;;5097472;28;20451;-86
2022/01/15 12:03:06;;;;;;;18.67;14.38;;;;;;;;;;5103322;28;20406;-85
2022/01/15 12:05:35;;;;;;;19.40;14.73;;;;;;;;;;5100984;28;20399;-84
2022/01/15 12:08:30;;;;;;;18.65;14.32;;;;;;;;;;5104144;27;20406;-77
2022/01/15 12:11:00;;;;;;;17.63;14.77;;;;;;;;;;5102938;27;20930;-85
2022/01/15 12:13:29;;;;;;;18.85;15.20;;;;;;;;;;5104518;28;20418;-85
2022/01/15 12:16:25;;;;;;;21.27;14.90;;;;;;;;;;5105935;28;20761;-84
2022/01/15 12:18:52;;;;;;;18.77;14.88;;;;;;;;;;5107556;28;20390;-84
2022/01/15 12:21:42;;;;;;;18.80;15.05;;;;;;;;;;5108087;28;20497;-85
2022/01/15 12:24:40;;;;;;;17.67;13.90;;;;;;;;;;5106337;28;20934;-85
2022/01/15 12:27:11;;;;;;;17.67;14.20;;;;;;;;;;5105689;27;20501;-84
2022/01/15 12:29:39;;;;;;;17.35;12.90;;;;;;;;;;5104116;28;20444;-85
2022/01/15 12:32:06;;;;;;;18.75;14.20;;;;;;;;;;5106611;27;20415;-84
2022/01/15 12:34:33;;;;;;;18.83;14.50;;;;;;;;;;5107610;27;20398;-85
2022/01/15 12:37:00;;;;;;;17.63;14.13;;;;;;;;;;5107348;28;20404;-85
2022/01/15 12:39:35;;;;;;;18.25;14.45;;;;;;;;;;5102781;27;20414;-84
2022/01/15 12:42:03;;;;;;;20.48;14.73;;;;;;;;;;5098290;28;20511;-84
2022/01/15 12:44:31;;;;;;;20.08;15.35;;;;;;;;;;5103619;27;20898;-84
2022/01/15 12:46:59;;;;;;;19.27;15.23;;;;;;;;;;5105684;28;20407;-84
2022/01/15 12:49:37;;;;;;;19.55;14.77;;;;;;;;;;5106766;27;20463;-85
2022/01/15 12:52:22;;;;;;;17.20;13.75;;;;;;;;;;5107597;28;20487;-84
2022/01/15 12:54:50;;;;;;;18.70;14.20;;;;;;;;;;5102229;27;20957;-84
2022/01/15 12:57:39;;;;;;;17.00;13.52;;;;;;;;;;5106391;28;20437;-85
2022/01/15 13:00:10;;;;;;;17.77;13.38;;;;;;;;;;5104672;27;20452;-84
2022/01/15 13:02:37;;;;;;;18.92;13.23;;;;;;;;;;5103621;28;20426;-85
2022/01/15 13:05:05;;;;;;;17.23;13.85;;;;;;;;;;5106621;27;20403;-85
2022/01/15 13:07:47;;;;;;;17.98;14.00;;;;;;;;;;5105992;28;20395;-84
2022/01/15 13:10:26;;;;;;;17.35;14.23;;;;;;;;;;5096843;27;20433;-84
2022/01/15 13:12:54;;;;;;;17.48;13.88;;;;;;;;;;5104760;28;20402;-84
2022/01/15 13:15:24;;;;;;;18.40;14.10;;;;;;;;;;5105889;27;20410;-83
2022/01/15 13:17:51;;;;;;;18.10;14.03;;;;;;;;;;5106191;28;20403;-83
2022/01/15 13:20:32;;;;;;;19.42;13.73;;;;;;;;;;5106386;27;20459;-83
2022/01/15 13:23:00;;;;;;;16.00;13.02;;;;;;;;;;5105880;28;20793;-84
2022/01/15 13:25:27;;;;;;;15.73;13.25;;;;;;;;;;5105075;27;21040;-85
2022/01/15 13:27:56;;;;;;;16.60;13.70;;;;;;;;;;5105677;28;20739;-85
2022/01/15 13:30:26;;;;;;;17.33;13.70;;;;;;;;;;5106970;27;20489;-85
2022/01/15 13:32:55;;;;;;;18.00;13.85;;;;;;;;;;5100277;28;20829;-85
2022/01/15 13:35:24;;;;;;;18.48;14.13;;;;;;;;;;5118325;27;20409;-84
2022/01/15 13:37:56;;;;;;;18.02;13.63;;;;;;;;;;5128488;28;20422;-86
2022/01/15 13:40:47;;;;;;;17.35;14.20;;;;;;;;;;5115839;27;20419;-84
2022/01/15 13:43:26;;;;;;;16.67;13.00;;;;;;;;;;5086331;28;20748;-85
2022/01/15 13:46:05;;;;;;;15.85;13.93;;;;;;;;;;5104527;27;20874;-84
2022/01/15 13:48:33;;;;;;;16.38;13.85;;;;;;;;;;5104092;28;20406;-85
2022/01/15 13:53:47;;;;;;;16.52;12.88;;;;;;;;;;5100838;28;20900;-85
2022/01/15 13:56:23;;;;;;;14.70;12.13;;;;;;;;;;5100787;27;20436;-86
2022/01/15 13:58:56;;;;;;;13.25;11.85;;;;;;;;;;5104183;28;20411;-85
2022/01/15 14:01:27;;;;;;;15.57;13.27;;;;;;;;;;5103257;27;20457;-86
2022/01/15 14:03:55;;;;;;;16.50;13.10;;;;;;;;;;5105736;28;20452;-86
2022/01/15 14:06:23;;;;;;;14.65;12.60;;;;;;;;;;5105497;27;20819;-86
2022/01/15 14:09:03;;;;;;;15.95;12.52;;;;;;;;;;5104825;28;20939;-86
2022/01/15 14:11:29;;;;;;;14.60;12.93;;;;;;;;;;5103352;28;20466;-84
2022/01/15 14:14:08;;;;;;;13.55;12.13;;;;;;;;;;5104699;28;20394;-86
2022/01/15 14:16:43;;;;;;;14.23;12.32;;;;;;;;;;5102327;28;20395;-85
2022/01/15 14:19:37;;;;;;;14.73;12.90;;;;;;;;;;5102558;28;20401;-85
2022/01/15 14:22:16;;;;;;;16.08;12.75;;;;;;;;;;5106267;28;20769;-85
2022/01/15 14:24:44;;;;;;;15.50;12.40;;;;;;;;;;5101724;28;20471;-77
2022/01/15 14:27:17;;;;;;;14.30;12.60;;;;;;;;;;5102155;28;20758;-85
2022/01/15 14:29:44;;;;;;;15.40;12.48;;;;;;;;;;5104796;28;20399;-86
2022/01/15 14:32:12;;;;;;;16.55;12.73;;;;;;;;;;5105590;27;20458;-85
2022/01/15 14:34:39;;;;;;;14.85;12.65;;;;;;;;;;5106954;28;20863;-88
2022/01/15 14:37:07;;;;;;;15.30;12.88;;;;;;;;;;5093417;28;20392;-83
2022/01/15 14:39:34;;;;;;;17.52;13.32;;;;;;;;;;5096638;28;20728;-84
2022/01/15 14:42:01;;;;;;;16.98;13.40;;;;;;;;;;5104429;28;20971;-84
2022/01/15 14:44:29;;;;;;;19.33;14.15;;;;;;;;;;5103900;28;20395;-87
2022/01/15 14:46:55;;;;;;;18.25;14.23;;;;;;;;;;5101973;28;20414;-84